Time;durP1;ratioP1;P1;durP2;ratioP2;P2;SDS_P1;SDS_P2;PMS_P1;PMS_P2;Temp;Humidity;BMP_temperature;BMP_pressure;BME280_temperature;BME280_humidity;BME280_pressure;Samples;Min_cycle;Max_cycle;Signal;HPM_P1;HPM_P2
2023/04/17 00:01:54;;;;;;;0.43;0.30;;;;;;;11.22;100.00;94711.75;5131285;28;20435;-62
2023/04/17 00:04:22;;;;;;;0.30;0.20;;;;;;;11.04;100.00;94711.75;5131420;28;20443;-63
2023/04/17 00:06:52;;;;;;;0.43;0.43;;;;;;;10.97;100.00;94709.47;5131723;28;20427;-62
2023/04/17 00:09:22;;;;;;;2.53;0.70;;;;;;;10.96;100.00;94675.25;5132080;28;20488;-63
2023/04/17 00:11:50;;;;;;;0.50;0.50;;;;;;;11.15;100.00;94702.59;5131733;28;20463;-62
2023/04/17 00:14:19;;;;;;;0.47;0.40;;;;;;;11.14;100.00;94701.00;5132093;28;20525;-62
2023/04/17 00:16:47;;;;;;;0.60;0.50;;;;;;;11.14;100.00;94706.31;5134097;27;20435;-63
2023/04/17 00:19:16;;;;;;;0.90;0.90;;;;;;;11.14;100.00;94696.50;5135427;27;20434;-62
2023/04/17 00:21:44;;;;;;;0.77;0.77;;;;;;;11.13;100.00;94688.81;5136316;27;20461;-63
2023/04/17 00:24:12;;;;;;;0.40;0.30;;;;;;;11.16;100.00;94701.50;5134408;27;20477;-62
2023/04/17 00:26:42;;;;;;;0.30;0.20;;;;;;;11.04;100.00;94693.97;5124051;27;20445;-62
2023/04/17 00:29:10;;;;;;;0.70;0.70;;;;;;;11.09;100.00;94699.22;5135680;27;20474;-62
2023/04/17 00:31:39;;;;;;;0.40;0.30;;;;;;;11.08;100.00;94696.84;5135908;27;20794;-63
2023/04/17 00:34:08;;;;;;;0.60;0.60;;;;;;;11.00;100.00;94700.94;5135957;27;20478;-63
2023/04/17 00:36:36;;;;;;;0.50;0.40;;;;;;;11.05;100.00;94697.41;5135549;27;20437;-63
2023/04/17 00:39:04;;;;;;;0.40;0.30;;;;;;;10.95;100.00;94690.41;5135623;27;20514;-63
2023/04/17 00:41:32;;;;;;;0.37;0.27;;;;;;;11.02;100.00;94690.03;5135709;27;20508;-63
2023/04/17 00:44:02;;;;;;;1.63;0.80;;;;;;;11.10;100.00;94695.50;5135437;27;20431;-62
2023/04/17 00:46:31;;;;;;;0.40;0.30;;;;;;;11.03;100.00;94688.97;5136036;27;20561;-62
2023/04/17 00:49:00;;;;;;;0.40;0.30;;;;;;;11.11;100.00;94693.59;5135065;27;21066;-62
2023/04/17 00:51:29;;;;;;;0.30;0.20;;;;;;;11.05;100.00;94697.41;5135366;27;20443;-62
2023/04/17 00:53:58;;;;;;;0.60;0.43;;;;;;;10.22;100.00;94700.56;5135212;27;20439;-62
2023/04/17 00:56:28;;;;;;;1.67;0.90;;;;;;;10.03;100.00;94703.13;5135048;27;20437;-62
2023/04/17 00:58:57;;;;;;;2.00;1.90;;;;;;;9.88;100.00;94710.41;5135175;27;20439;-62
2023/04/17 01:01:27;;;;;;;10.53;0.80;;;;;;;9.68;100.00;94702.66;5135323;27;20442;-62
2023/04/17 01:03:58;;;;;;;1.23;1.13;;;;;;;9.70;100.00;94703.97;5134910;27;20430;-62
2023/04/17 01:06:27;;;;;;;0.43;0.43;;;;;;;9.65;100.00;94700.56;5134815;27;20880;-62
2023/04/17 01:08:56;;;;;;;0.60;0.30;;;;;;;9.49;100.00;94691.97;5135187;27;20514;-62
2023/04/17 01:11:24;;;;;;;0.50;0.40;;;;;;;9.21;100.00;94704.06;5134948;27;20522;-62
2023/04/17 01:13:53;;;;;;;0.50;0.50;;;;;;;9.14;100.00;94695.66;5124459;27;20440;-62
2023/04/17 01:16:22;;;;;;;0.40;0.40;;;;;;;9.02;100.00;94703.16;5132013;27;20438;-62
2023/04/17 01:18:52;;;;;;;2.50;0.90;;;;;;;9.07;100.00;94707.63;5134853;27;20522;-62
2023/04/17 01:21:20;;;;;;;0.40;0.30;;;;;;;9.14;100.00;94706.25;5134114;27;20466;-62
2023/04/17 01:23:51;;;;;;;0.50;0.50;;;;;;;9.01;100.00;94663.75;5134953;27;20798;-62
2023/04/17 01:26:23;;;;;;;0.30;0.20;;;;;;;9.57;100.00;94700.09;5134328;27;20443;-62
2023/04/17 01:28:53;;;;;;;0.83;0.33;;;;;;;9.87;100.00;94699.03;5134048;27;20546;-62
2023/04/17 01:31:21;;;;;;;0.33;0.27;;;;;;;10.05;100.00;94695.69;5134409;27;20516;-62
2023/04/17 01:33:50;;;;;;;0.43;0.43;;;;;;;10.06;100.00;94699.91;5134651;27;20553;-62
2023/04/17 01:36:19;;;;;;;1.23;1.13;;;;;;;10.33;100.00;94698.59;5134581;27;20443;-61
2023/04/17 01:38:47;;;;;;;0.30;0.20;;;;;;;10.17;100.00;94692.66;5132368;27;20443;-62
2023/04/17 01:41:15;;;;;;;0.30;0.20;;;;;;;9.89;100.00;94690.84;5123503;27;20448;-62
2023/04/17 01:43:47;;;;;;;0.40;0.40;;;;;;;10.00;100.00;94682.50;5134121;27;20526;-62
2023/04/17 01:46:15;;;;;;;0.47;0.27;;;;;;;10.20;100.00;94676.22;5134051;27;20431;-62
2023/04/17 01:48:44;;;;;;;0.40;0.30;;;;;;;10.24;100.00;94679.09;5134008;27;20442;-63
2023/04/17 01:51:12;;;;;;;0.90;0.43;;;;;;;10.36;100.00;94672.34;5134297;27;20952;-62
2023/04/17 01:53:41;;;;;;;0.40;0.40;;;;;;;10.20;100.00;94677.00;5133819;27;20441;-62
2023/04/17 01:56:09;;;;;;;0.50;0.50;;;;;;;10.26;100.00;94676.97;5134013;27;20445;-62
2023/04/17 01:58:37;;;;;;;0.40;0.40;;;;;;;10.47;100.00;94665.84;5133775;27;20433;-62
2023/04/17 02:01:07;;;;;;;1.47;1.37;;;;;;;10.47;100.00;94670.34;5133922;27;20457;-62
2023/04/17 02:03:35;;;;;;;0.30;0.30;;;;;;;10.16;100.00;94670.72;5133794;27;20431;-62
2023/04/17 02:06:04;;;;;;;0.60;0.50;;;;;;;9.97;100.00;94672.47;5133780;27;20439;-62
2023/04/17 02:08:33;;;;;;;0.43;0.40;;;;;;;10.06;100.00;94664.72;5133756;27;20509;-62
2023/04/17 02:11:01;;;;;;;0.90;0.90;;;;;;;10.01;100.00;94673.50;5133869;27;20517;-62
2023/04/17 02:13:29;;;;;;;0.40;0.40;;;;;;;9.93;100.00;94662.72;5133316;27;20534;-62
2023/04/17 02:15:58;;;;;;;0.60;0.53;;;;;;;9.99;100.00;94664.25;5133075;27;21006;-62
2023/04/17 02:18:28;;;;;;;0.40;0.30;;;;;;;10.00;100.00;94666.63;5107616;27;20797;-62
2023/04/17 02:20:56;;;;;;;0.60;0.60;;;;;;;10.08;100.00;94659.91;5133163;27;20970;-62
2023/04/17 02:23:24;;;;;;;0.50;0.40;;;;;;;10.06;100.00;94656.75;5133190;27;20443;-62
2023/04/17 02:25:52;;;;;;;0.60;0.50;;;;;;;10.32;100.00;94646.72;5133078;27;20466;-62
2023/04/17 02:28:21;;;;;;;0.30;0.20;;;;;;;10.29;100.00;94650.72;5134004;27;20437;-62
2023/04/17 02:30:49;;;;;;;0.40;0.30;;;;;;;10.57;100.00;94656.97;5133012;27;20561;-62
2023/04/17 02:33:17;;;;;;;0.40;0.40;;;;;;;10.70;100.00;94649.09;5133477;27;20441;-63
2023/04/17 02:35:47;;;;;;;0.37;0.27;;;;;;;10.68;100.00;94634.56;5133029;27;20440;-62
2023/04/17 02:38:16;;;;;;;2.83;0.50;;;;;;;10.63;100.00;94642.59;5132937;27;20594;-62
2023/04/17 02:40:44;;;;;;;0.37;0.27;;;;;;;10.63;100.00;94643.38;5133432;27;20434;-62
2023/04/17 02:43:13;;;;;;;0.40;0.30;;;;;;;10.62;100.00;94641.81;5132896;27;20470;-63
2023/04/17 02:45:41;;;;;;;0.40;0.30;;;;;;;10.57;100.00;94652.47;5133071;27;20518;-62
2023/04/17 02:48:10;;;;;;;0.50;0.50;;;;;;;10.65;100.00;94648.41;5133100;27;20434;-63
2023/04/17 02:50:38;;;;;;;0.40;0.40;;;;;;;10.70;100.00;94648.34;5132942;27;20481;-62
2023/04/17 02:53:08;;;;;;;0.57;0.37;;;;;;;10.59;100.00;94646.88;5132732;27;20490;-62
2023/04/17 02:55:36;;;;;;;0.50;0.30;;;;;;;10.68;100.00;94640.66;5133093;27;20518;-63
2023/04/17 02:58:04;;;;;;;0.50;0.30;;;;;;;10.68;100.00;94640.66;5132922;27;20461;-62
2023/04/17 03:00:33;;;;;;;0.70;0.67;;;;;;;10.60;100.00;94625.38;5105864;27;20446;-62
2023/04/17 03:03:02;;;;;;;0.40;0.30;;;;;;;10.82;100.00;94627.50;5133180;27;20463;-64
2023/04/17 03:05:31;;;;;;;0.40;0.33;;;;;;;10.85;100.00;94629.56;5132922;27;20446;-62
2023/04/17 03:07:59;;;;;;;0.30;0.30;;;;;;;11.03;100.00;94636.72;5132295;27;20556;-62
2023/04/17 03:10:29;;;;;;;0.40;0.40;;;;;;;11.13;100.00;94636.56;5132974;27;20526;-62
2023/04/17 03:12:57;;;;;;;0.40;0.20;;;;;;;11.03;100.00;94636.72;5132572;27;20438;-63
2023/04/17 03:15:25;;;;;;;0.57;0.57;;;;;;;11.02;100.00;94635.16;5132568;27;20471;-62
2023/04/17 03:17:54;;;;;;;0.50;0.50;;;;;;;11.13;100.00;94639.22;5124514;27;20440;-62
2023/04/17 03:20:22;;;;;;;0.53;0.53;;;;;;;11.21;100.00;94632.47;5132668;27;20474;-62
2023/04/17 03:22:50;;;;;;;0.40;0.30;;;;;;;11.22;100.00;94629.53;5132181;27;20451;-62
2023/04/17 03:25:19;;;;;;;0.70;0.70;;;;;;;11.29;100.00;94634.47;5132228;27;20836;-63
2023/04/17 03:27:48;;;;;;;1.50;0.40;;;;;;;11.25;100.00;94628.97;5132128;28;20522;-62
2023/04/17 03:30:17;;;;;;;0.50;0.30;;;;;;;11.19;100.00;94629.31;5132782;28;20570;-62
2023/04/17 03:32:45;;;;;;;0.40;0.30;;;;;;;11.43;100.00;94627.34;5131758;28;20466;-62
2023/04/17 03:35:14;;;;;;;0.40;0.40;;;;;;;11.45;100.00;94633.94;5132519;27;20522;-62
2023/04/17 03:37:42;;;;;;;1.07;0.87;;;;;;;11.44;100.00;94626.25;5132087;28;20435;-62
2023/04/17 03:40:11;;;;;;;0.40;0.40;;;;;;;11.48;100.00;94614.00;5132898;28;20783;-62
2023/04/17 03:42:39;;;;;;;0.70;0.70;;;;;;;11.68;100.00;94631.44;5131945;28;21012;-62
2023/04/17 03:45:10;;;;;;;0.43;0.43;;;;;;;11.72;100.00;94629.78;5132177;28;20927;-62
2023/04/17 03:47:39;;;;;;;2.50;2.40;;;;;;;11.53;100.00;94637.00;5105547;28;20430;-62
2023/04/17 03:50:08;;;;;;;0.70;0.70;;;;;;;10.82;100.00;94646.03;5132461;27;20478;-62
2023/04/17 03:52:36;;;;;;;0.67;0.63;;;;;;;10.56;100.00;94642.16;5136157;27;20513;-62
2023/04/17 03:55:06;;;;;;;2.00;1.27;;;;;;;10.42;100.00;94638.63;5135809;27;20458;-62
2023/04/17 03:57:34;;;;;;;10.73;1.77;;;;;;;10.38;100.00;94645.56;5136467;27;20466;-63
2023/04/17 04:00:06;;;;;;;0.50;0.50;;;;;;;10.56;100.00;94652.75;5136626;27;20438;-62
2023/04/17 04:02:36;;;;;;;1.73;1.63;;;;;;;10.58;100.00;94629.41;5136468;27;20482;-62
2023/04/17 04:05:05;;;;;;;1.93;0.50;;;;;;;10.35;100.00;94654.84;5136212;27;20521;-63
2023/04/17 04:07:33;;;;;;;1.33;0.53;;;;;;;10.04;100.00;94604.06;5135991;27;21126;-62
2023/04/17 04:10:02;;;;;;;0.30;0.20;;;;;;;10.44;100.00;94649.72;5122212;27;20508;-62
2023/04/17 04:12:30;;;;;;;0.30;0.20;;;;;;;10.75;100.00;94641.09;5135933;27;20796;-62
2023/04/17 04:14:58;;;;;;;0.40;0.40;;;;;;;11.00;100.00;94642.59;5136297;27;20797;-62
2023/04/17 04:17:27;;;;;;;0.40;0.30;;;;;;;10.81;100.00;94652.41;5136131;27;20439;-62
2023/04/17 04:19:56;;;;;;;0.70;0.40;;;;;;;10.59;100.00;94650.31;5135724;27;20443;-62
2023/04/17 04:22:25;;;;;;;1.87;0.40;;;;;;;10.23;100.00;94657.13;5136082;27;20431;-62
2023/04/17 04:25:11;;;;;;;4.47;0.40;;;;;;;9.86;100.00;94663.06;5114129;27;20558;-62
2023/04/17 04:27:44;;;;;;;1.17;1.17;;;;;;;9.83;100.00;94663.63;5135559;27;20446;-62
2023/04/17 04:30:13;;;;;;;0.60;0.60;;;;;;;9.62;100.00;94669.38;5135612;27;20522;-62
2023/04/17 04:32:41;;;;;;;3.23;3.13;;;;;;;9.57;100.00;94680.78;5135857;27;20446;-61
2023/04/17 04:35:12;;;;;;;1.47;1.37;;;;;;;9.13;100.00;94686.16;5135445;27;20946;-62
2023/04/17 04:37:41;;;;;;;0.67;0.67;;;;;;;9.43;100.00;94687.78;5134794;27;20438;-62
2023/04/17 04:40:10;;;;;;;0.77;0.47;;;;;;;9.26;100.00;94687.41;5135396;27;20439;-63
2023/04/17 04:42:40;;;;;;;0.53;0.53;;;;;;;9.36;100.00;94693.38;5135106;27;20526;-63
2023/04/17 04:45:09;;;;;;;0.80;0.80;;;;;;;9.52;100.00;94683.47;5135111;27;20435;-63
2023/04/17 04:47:38;;;;;;;0.40;0.30;;;;;;;9.91;100.00;94686.84;5135514;27;20442;-63
2023/04/17 04:50:07;;;;;;;0.40;0.37;;;;;;;9.51;100.00;94656.22;5135410;27;20515;-63
2023/04/17 04:52:37;;;;;;;0.60;0.60;;;;;;;10.11;100.00;94697.22;5135177;27;20470;-63
2023/04/17 04:55:06;;;;;;;0.30;0.20;;;;;;;10.13;100.00;94641.34;5135675;27;20451;-61
2023/04/17 04:57:35;;;;;;;0.87;0.87;;;;;;;10.62;100.00;94689.50;5135230;27;20435;-64
2023/04/17 05:00:07;;;;;;;0.73;0.73;;;;;;;10.48;100.00;94698.41;5135258;27;20517;-64
2023/04/17 05:02:35;;;;;;;0.33;0.27;;;;;;;10.62;100.00;94691.38;5134203;27;20866;-57
2023/04/17 05:05:05;;;;;;;0.50;0.30;;;;;;;10.70;100.00;94696.03;5135138;27;20440;-62
2023/04/17 05:07:33;;;;;;;13.67;0.77;;;;;;;10.75;100.00;94704.69;5135411;27;20922;-62
2023/04/17 05:10:03;;;;;;;1.60;1.13;;;;;;;10.91;100.00;94697.34;5134883;27;20946;-63
2023/04/17 05:12:32;;;;;;;1.00;1.00;;;;;;;10.91;100.00;94701.84;5123103;27;20471;-63
2023/04/17 05:15:00;;;;;;;1.07;1.07;;;;;;;9.35;100.00;94517.28;5133956;27;20526;-63
2023/04/17 05:17:28;;;;;;;5.80;0.33;;;;;;;10.45;100.00;94710.38;5135258;27;20439;-65
2023/04/17 05:19:57;;;;;;;1.07;1.07;;;;;;;10.43;100.00;94720.47;5134944;27;20529;-64
2023/04/17 05:22:26;;;;;;;0.60;0.60;;;;;;;10.64;100.00;94716.50;5134764;27;20954;-63
2023/04/17 05:24:54;;;;;;;0.30;0.20;;;;;;;10.55;100.00;94709.47;5134726;27;20554;-63
2023/04/17 05:27:25;;;;;;;0.83;0.60;;;;;;;10.24;100.00;94716.19;5135005;27;20435;-63
2023/04/17 05:29:54;;;;;;;0.40;0.30;;;;;;;10.50;100.00;94728.09;5134727;27;20491;-63
2023/04/17 05:32:22;;;;;;;0.40;0.30;;;;;;;10.81;100.00;94719.47;5134350;27;20553;-63
2023/04/17 05:34:51;;;;;;;0.90;0.40;;;;;;;11.01;100.00;94726.38;5134634;27;20435;-64
2023/04/17 05:37:19;;;;;;;0.40;0.40;;;;;;;10.84;100.00;94728.72;5133201;27;20857;-63
2023/04/17 05:39:47;;;;;;;0.40;0.30;;;;;;;10.84;100.00;94732.16;5134381;27;20431;-63
2023/04/17 05:42:15;;;;;;;0.33;0.27;;;;;;;10.86;100.00;94731.88;5133969;27;20438;-62
2023/04/17 05:44:45;;;;;;;0.43;0.30;;;;;;;10.85;100.00;94732.97;5134445;27;20473;-62
2023/04/17 05:47:14;;;;;;;0.40;0.30;;;;;;;10.74;100.00;94737.59;5133349;27;20427;-61
2023/04/17 05:49:42;;;;;;;0.50;0.40;;;;;;;10.98;100.00;94740.19;5134035;27;20439;-61
2023/04/17 05:52:11;;;;;;;0.40;0.30;;;;;;;11.14;100.00;94738.91;5134015;27;20470;-62
2023/04/17 05:54:39;;;;;;;0.50;0.50;;;;;;;11.27;100.00;94740.06;5133681;27;20438;-62
2023/04/17 05:57:08;;;;;;;0.40;0.30;;;;;;;11.24;100.00;94749.38;5133994;27;20509;-61
2023/04/17 05:59:36;;;;;;;0.67;0.67;;;;;;;10.84;100.00;94761.31;5133751;27;20481;-61
2023/04/17 06:02:06;;;;;;;0.50;0.50;;;;;;;10.98;100.00;94764.06;5133982;27;20534;-61
2023/04/17 06:04:35;;;;;;;1.03;0.70;;;;;;;11.26;100.00;94763.16;5134027;27;20427;-61
2023/04/17 06:07:04;;;;;;;0.30;0.20;;;;;;;11.16;100.00;94759.84;5108056;27;20450;-60
2023/04/17 06:09:33;;;;;;;0.30;0.30;;;;;;;11.34;100.00;94767.03;5133857;27;20459;-61
2023/04/17 06:12:01;;;;;;;0.30;0.30;;;;;;;11.26;100.00;94770.31;5133895;27;20474;-61
2023/04/17 06:14:29;;;;;;;2.20;1.07;;;;;;;10.95;100.00;94716.13;5133059;27;20446;-61
2023/04/17 06:16:58;;;;;;;2.53;0.30;;;;;;;10.85;100.00;94767.41;5133776;27;20431;-60
2023/04/17 06:19:28;;;;;;;0.40;0.30;;;;;;;10.78;100.00;94757.16;5132769;27;20439;-59
2023/04/17 06:21:56;;;;;;;3.23;2.97;;;;;;;10.86;100.00;94771.63;5133213;27;20431;-59
2023/04/17 06:24:25;;;;;;;0.50;0.40;;;;;;;10.76;100.00;94767.25;5132806;27;20478;-59
2023/04/17 06:26:53;;;;;;;0.73;0.73;;;;;;;10.89;100.00;94767.63;5133156;27;20439;-58
2023/04/17 06:29:21;;;;;;;0.53;0.53;;;;;;;10.71;100.00;94772.59;5133470;27;20522;-58
2023/04/17 06:31:50;;;;;;;0.50;0.50;;;;;;;10.73;100.00;94778.41;5132853;27;20502;-60
2023/04/17 06:34:18;;;;;;;0.40;0.30;;;;;;;10.72;100.00;94776.06;5133061;27;20441;-59
2023/04/17 06:36:48;;;;;;;2.00;1.37;;;;;;;10.84;100.00;94781.72;5132973;27;20463;-60
2023/04/17 06:39:16;;;;;;;0.40;0.40;;;;;;;11.20;100.00;94785.53;5132649;27;20795;-60
2023/04/17 06:41:44;;;;;;;0.40;0.30;;;;;;;11.41;100.00;94781.50;5133112;27;20449;-59
2023/04/17 06:44:13;;;;;;;0.60;0.60;;;;;;;11.43;100.00;94776.69;5132275;27;20434;-59
2023/04/17 06:46:41;;;;;;;0.70;0.70;;;;;;;11.08;100.00;94766.56;5132838;27;20871;-59
2023/04/17 06:49:10;;;;;;;0.50;0.37;;;;;;;11.33;100.00;94773.41;5132498;27;20430;-60
2023/04/17 06:51:39;;;;;;;0.80;0.80;;;;;;;11.54;100.00;94752.66;5132999;27;20438;-60
2023/04/17 06:54:09;;;;;;;0.50;0.50;;;;;;;12.24;100.00;94762.19;5106122;27;20434;-61
2023/04/17 06:56:38;;;;;;;0.63;0.63;;;;;;;12.53;100.00;94764.56;5132804;27;20439;-60
2023/04/17 06:59:06;;;;;;;0.87;0.73;;;;;;;13.45;100.00;94765.13;5132825;27;20439;-60
2023/04/17 07:01:36;;;;;;;0.93;0.93;;;;;;;13.79;100.00;94759.28;5132407;27;20522;-60
2023/04/17 07:04:07;;;;;;;0.60;0.60;;;;;;;13.99;100.00;94758.78;5133007;27;20435;-60
2023/04/17 07:06:35;;;;;;;0.60;0.60;;;;;;;14.12;100.00;94763.25;5132482;27;20518;-61
2023/04/17 07:09:04;;;;;;;0.60;0.53;;;;;;;14.21;100.00;94750.00;5122577;27;20442;-60
2023/04/17 07:11:34;;;;;;;0.40;0.30;;;;;;;14.30;97.47;94759.63;5129027;27;20503;-60
2023/04/17 07:14:02;;;;;;;6.23;0.93;;;;;;;14.11;97.70;94769.72;5132334;27;20445;-59
2023/04/17 07:16:30;;;;;;;4.10;1.13;;;;;;;13.99;100.00;94772.09;5132434;27;20514;-59
2023/04/17 07:18:59;;;;;;;1.30;1.30;;;;;;;13.62;100.00;94767.13;5132585;27;20466;-59
2023/04/17 07:21:27;;;;;;;0.60;0.50;;;;;;;13.36;100.00;94780.22;5132352;27;20439;-59
2023/04/17 07:23:55;;;;;;;0.40;0.30;;;;;;;13.20;100.00;94757.69;5132451;27;20958;-59
2023/04/17 07:26:23;;;;;;;0.70;0.70;;;;;;;13.23;100.00;94770.41;5132109;27;20423;-60
2023/04/17 07:28:53;;;;;;;0.40;0.40;;;;;;;13.72;99.66;94766.91;5132462;28;20470;-60
2023/04/17 07:31:21;;;;;;;0.90;0.90;;;;;;;13.28;100.00;94776.38;5132013;28;20503;-60
2023/04/17 07:33:50;;;;;;;0.40;0.30;;;;;;;12.85;100.00;94759.16;5131913;28;20470;-60
2023/04/17 07:36:18;;;;;;;0.40;0.40;;;;;;;13.70;100.00;94771.75;5132362;28;20471;-60
2023/04/17 07:38:46;;;;;;;0.63;0.63;;;;;;;14.19;100.00;94770.84;5132346;28;20431;-59
2023/04/17 07:41:15;;;;;;;0.40;0.40;;;;;;;14.49;94.87;94773.56;5132625;28;20438;-60
2023/04/17 07:43:43;;;;;;;0.97;0.97;;;;;;;14.78;90.65;94775.72;5132146;28;20473;-60
2023/04/17 07:46:13;;;;;;;21.77;0.50;;;;;;;15.01;92.37;94766.53;5132565;27;20990;-62
2023/04/17 07:48:41;;;;;;;0.47;0.30;;;;;;;15.69;92.14;94767.75;5132000;28;20457;-62
2023/04/17 07:51:09;;;;;;;0.93;0.83;;;;;;;15.79;84.56;94768.25;5131959;27;20955;-63
2023/04/17 07:53:38;;;;;;;0.40;0.30;;;;;;;14.92;85.47;94776.41;5131884;27;20509;-63
2023/04/17 07:56:06;;;;;;;0.70;0.70;;;;;;;14.66;88.07;94778.19;5132011;28;20434;-63
2023/04/17 07:58:35;;;;;;;2.87;0.87;;;;;;;15.09;88.53;94778.34;5132130;28;20487;-63
2023/04/17 08:01:04;;;;;;;1.00;0.57;;;;;;;15.52;88.49;94773.09;5132386;27;20466;-63
2023/04/17 08:03:34;;;;;;;0.60;0.60;;;;;;;15.88;87.02;94770.94;5132015;28;20780;-63
2023/04/17 08:06:03;;;;;;;0.70;0.40;;;;;;;15.96;79.57;94769.34;5132273;28;20433;-62
2023/04/17 08:08:31;;;;;;;0.50;0.40;;;;;;;16.07;80.23;94770.56;5131761;27;20510;-62
2023/04/17 08:10:59;;;;;;;0.53;0.50;;;;;;;15.84;80.68;94770.75;5132442;28;20470;-63
2023/04/17 08:13:30;;;;;;;0.40;0.30;;;;;;;16.42;77.80;94759.50;5131977;28;20470;-63
2023/04/17 08:15:59;;;;;;;0.60;0.30;;;;;;;17.04;72.82;94716.16;5131761;28;20813;-62
2023/04/17 08:18:27;;;;;;;0.40;0.30;;;;;;;17.44;69.65;94762.84;5132172;27;20439;-62
2023/04/17 08:20:56;;;;;;;0.80;0.63;;;;;;;17.49;69.71;94762.66;5132047;28;20439;-64
2023/04/17 08:23:25;;;;;;;5.50;1.00;;;;;;;16.74;71.32;94760.06;5132123;28;20980;-63
2023/04/17 08:25:53;;;;;;;0.50;0.43;;;;;;;16.73;74.23;94745.91;5131610;28;20933;-63
2023/04/17 08:28:22;;;;;;;0.40;0.33;;;;;;;17.03;75.87;94768.13;5131882;28;20445;-63
2023/04/17 08:30:50;;;;;;;0.60;0.60;;;;;;;16.55;72.77;94744.38;5131906;27;20467;-64
2023/04/17 08:33:19;;;;;;;1.00;0.80;;;;;;;16.64;73.47;94768.44;5131997;28;20523;-64
2023/04/17 08:35:47;;;;;;;1.43;1.07;;;;;;;16.36;75.42;94766.16;5131769;27;20419;-64
2023/04/17 08:38:17;;;;;;;0.60;0.60;;;;;;;15.72;73.60;94764.47;5135079;27;20505;-64
2023/04/17 08:40:50;;;;;;;1.00;0.83;;;;;;;15.87;74.08;94754.09;5135194;27;20490;-64
2023/04/17 08:43:19;;;;;;;0.50;0.40;;;;;;;15.64;70.76;94771.38;5135477;27;20431;-64
2023/04/17 08:45:52;;;;;;;0.60;0.53;;;;;;;16.16;71.26;94772.16;5135583;27;20935;-63
2023/04/17 08:48:21;;;;;;;0.60;0.47;;;;;;;16.02;70.37;94760.84;5135486;27;20879;-62
2023/04/17 08:50:51;;;;;;;0.73;0.73;;;;;;;15.36;72.97;94722.00;5128183;27;20504;-62
2023/04/17 08:53:21;;;;;;;0.50;0.50;;;;;;;15.35;75.05;94762.38;5129359;27;20466;-62
2023/04/17 08:55:49;;;;;;;6.40;2.37;;;;;;;15.67;89.28;94767.28;5134748;27;20473;-56
2023/04/17 08:58:20;;;;;;;1.50;1.37;;;;;;;15.79;78.70;94775.47;5134565;27;20446;-62
2023/04/17 09:00:49;;;;;;;0.57;0.50;;;;;;;15.46;77.34;94774.34;5135144;27;20482;-62
2023/04/17 09:03:17;;;;;;;0.60;0.57;;;;;;;15.37;75.38;94752.94;5135152;27;20470;-62
2023/04/17 09:05:47;;;;;;;0.60;0.60;;;;;;;15.33;76.22;94772.59;5135412;27;20449;-62
2023/04/17 09:08:19;;;;;;;1.10;1.10;;;;;;;15.33;78.86;94780.59;5134695;27;20441;-62
2023/04/17 09:10:50;;;;;;;0.70;0.70;;;;;;;15.17;77.92;94778.38;5135306;27;20522;-63
2023/04/17 09:13:21;;;;;;;0.57;0.57;;;;;;;14.67;81.33;94781.63;5134578;27;20517;-62
2023/04/17 09:16:05;;;;;;;1.00;1.00;;;;;;;14.27;84.03;94788.78;5135015;27;20530;-62
2023/04/17 09:18:35;;;;;;;0.50;0.50;;;;;;;14.22;83.91;94789.66;5134750;27;20477;-62
2023/04/17 09:21:05;;;;;;;1.53;0.60;;;;;;;14.30;83.04;94783.59;5135029;27;20462;-62
2023/04/17 09:23:48;;;;;;;0.40;0.30;;;;;;;14.76;81.62;94751.22;5134807;27;20526;-63
2023/04/17 09:26:19;;;;;;;0.60;0.50;;;;;;;15.00;81.77;94783.63;5134731;27;20439;-62
2023/04/17 09:29:09;;;;;;;2.40;2.20;;;;;;;14.95;84.01;94786.44;5134749;27;20430;-62
2023/04/17 09:31:41;;;;;;;4.00;0.90;;;;;;;14.44;86.63;94787.03;5112572;27;20454;-61
2023/04/17 09:34:11;;;;;;;3.50;0.50;;;;;;;13.75;87.76;94745.78;5133909;27;20475;-62
2023/04/17 09:36:42;;;;;;;1.07;1.07;;;;;;;14.38;85.25;94750.13;5134223;27;20439;-63
2023/04/17 09:39:19;;;;;;;0.50;0.40;;;;;;;14.45;86.87;94791.25;5133932;27;20459;-63
2023/04/17 09:41:49;;;;;;;0.67;0.67;;;;;;;14.05;82.66;94791.44;5121342;27;20436;-62
2023/04/17 09:44:26;;;;;;;0.40;0.30;;;;;;;14.47;83.02;94789.06;5133741;27;20466;-63
2023/04/17 09:46:55;;;;;;;0.90;0.90;;;;;;;14.22;83.02;94764.91;5133924;27;20811;-63
2023/04/17 09:49:30;;;;;;;0.50;0.40;;;;;;;14.30;85.53;94790.81;5133729;27;20474;-63
2023/04/17 09:51:59;;;;;;;1.60;1.60;;;;;;;13.94;84.14;94788.22;5134092;27;20565;-64
2023/04/17 09:54:30;;;;;;;2.87;0.83;;;;;;;13.96;84.37;94794.81;5133943;27;20474;-64
2023/04/17 09:57:02;;;;;;;2.90;0.90;;;;;;;13.99;88.98;94783.56;5133275;27;20487;-63
2023/04/17 09:59:32;;;;;;;0.60;0.60;;;;;;;14.43;85.82;94782.78;5133795;27;20445;-63
2023/04/17 10:02:01;;;;;;;0.47;0.40;;;;;;;14.09;84.72;94793.19;5134388;27;20888;-63
2023/04/17 10:04:30;;;;;;;2.00;0.50;;;;;;;14.25;86.11;94785.59;5133769;27;20507;-63
2023/04/17 10:06:58;;;;;;;0.40;0.30;;;;;;;13.82;88.18;94791.44;5133589;27;20443;-63
2023/04/17 10:09:27;;;;;;;0.40;0.30;;;;;;;14.09;92.86;94789.75;5133657;27;20481;-63
2023/04/17 10:11:56;;;;;;;0.40;0.30;;;;;;;13.37;94.41;94739.22;5134033;27;20423;-63
2023/04/17 10:14:28;;;;;;;0.40;0.23;;;;;;;13.62;93.63;94796.44;5133668;27;20565;-64
2023/04/17 10:16:56;;;;;;;2.33;0.77;;;;;;;13.83;97.20;94787.69;5133849;27;20792;-64
2023/04/17 10:19:29;;;;;;;0.50;0.43;;;;;;;13.15;100.00;94747.16;5133058;27;20447;-56
2023/04/17 10:22:32;;;;;;;1.77;0.60;;;;;;;13.05;100.00;94796.03;5133658;27;20481;-64
2023/04/17 10:25:21;;;;;;;0.80;0.80;;;;;;;13.02;100.00;94793.94;5037648;28;20502;-63
2023/04/17 10:27:57;;;;;;;0.80;0.80;;;;;;;12.92;100.00;94799.47;5129003;27;20449;-63
2023/04/17 10:30:50;;;;;;;1.07;1.07;;;;;;;12.99;100.00;94791.06;5133162;27;20441;-64
2023/04/17 10:33:24;;;;;;;0.70;0.50;;;;;;;12.87;100.00;94791.59;5132825;27;20435;-63
2023/04/17 10:35:53;;;;;;;0.70;0.70;;;;;;;13.19;100.00;94783.50;5134158;27;20802;-64
2023/04/17 10:38:33;;;;;;;0.70;0.70;;;;;;;13.38;100.00;94792.13;5133558;27;20819;-63
2023/04/17 10:41:07;;;;;;;0.43;0.30;;;;;;;12.94;100.00;94741.44;5132919;27;20938;-62
2023/04/17 10:43:41;;;;;;;1.40;1.40;;;;;;;13.40;100.00;94793.72;5132522;27;20434;-60
2023/04/17 10:46:12;;;;;;;1.57;0.90;;;;;;;13.28;100.00;94792.34;5133418;27;20439;-61
2023/04/17 10:48:48;;;;;;;6.13;1.50;;;;;;;13.18;100.00;94799.78;5132607;27;20435;-60
2023/04/17 10:51:43;;;;;;;1.47;1.00;;;;;;;13.69;100.00;94796.78;5132817;27;20441;-61
2023/04/17 10:54:14;;;;;;;1.03;0.73;;;;;;;13.72;100.00;94783.66;5071257;27;21006;-61
2023/04/17 10:56:45;;;;;;;2.07;1.97;;;;;;;13.21;100.00;94753.94;5132334;27;20431;-61
2023/04/17 10:59:15;;;;;;;0.87;0.57;;;;;;;14.01;100.00;94791.28;5132030;27;20443;-61
2023/04/17 11:02:06;;;;;;;1.00;1.00;;;;;;;14.39;100.00;94789.81;5131789;27;20562;-62
2023/04/17 11:04:35;;;;;;;0.73;0.73;;;;;;;13.80;100.00;94745.66;5132953;27;20528;-62
2023/04/17 11:07:03;;;;;;;0.50;0.50;;;;;;;13.76;100.00;94797.94;5106129;27;20508;-61
2023/04/17 11:09:31;;;;;;;2.90;2.53;;;;;;;13.85;100.00;94793.50;5132008;27;20881;-59
2023/04/17 11:12:01;;;;;;;0.63;0.63;;;;;;;13.55;100.00;94716.97;5132283;27;20947;-61
2023/04/17 11:14:31;;;;;;;0.50;0.50;;;;;;;13.69;100.00;94759.50;5118934;27;20508;-61
2023/04/17 11:17:01;;;;;;;0.70;0.60;;;;;;;13.79;100.00;94783.25;5133006;27;20453;-60
2023/04/17 11:19:32;;;;;;;0.40;0.30;;;;;;;13.86;100.00;94771.06;5132618;27;20430;-61
2023/04/17 11:22:01;;;;;;;0.50;0.50;;;;;;;13.96;100.00;94770.06;5132784;27;20457;-61
2023/04/17 11:24:31;;;;;;;0.50;0.50;;;;;;;14.46;100.00;94768.03;5132014;27;20550;-62
2023/04/17 11:27:02;;;;;;;0.40;0.30;;;;;;;14.41;99.35;94771.63;5132334;27;20496;-63
2023/04/17 11:29:31;;;;;;;0.50;0.50;;;;;;;15.43;93.94;94770.38;5132076;27;20436;-64
2023/04/17 11:32:00;;;;;;;0.50;0.37;;;;;;;15.77;90.76;94780.34;5132677;27;20931;-66
2023/04/17 11:34:30;;;;;;;0.40;0.30;;;;;;;15.87;86.55;94769.34;5132357;28;20519;-66
2023/04/17 11:37:00;;;;;;;0.47;0.47;;;;;;;15.71;86.31;94770.94;5132108;28;20834;-67
2023/04/17 11:39:30;;;;;;;0.40;0.40;;;;;;;15.57;86.87;94770.28;5106370;28;20443;-67
2023/04/17 11:41:59;;;;;;;0.50;0.30;;;;;;;14.99;87.08;94774.06;5132417;28;20454;-66